Time;durP1;ratioP1;P1;durP2;ratioP2;P2;SDS_P1;SDS_P2;PMS_P1;PMS_P2;Temp;Humidity;BMP_temperature;BMP_pressure;BME280_temperature;BME280_humidity;BME280_pressure;Samples;Min_cycle;Max_cycle;Signal;HPM_P1;HPM_P2
2023/01/10 00:00:45;;;;;;;2.70;2.50;;;;;5.40;95673.00;;;;8295379;28;20614;-71
2023/01/10 00:04:50;;;;;;;2.40;2.20;;;;;5.30;95677.00;;;;8294450;28;20236;-71
2023/01/10 00:08:59;;;;;;;2.90;2.43;;;;;5.30;95684.00;;;;8294412;28;20233;-71
2023/01/10 00:17:27;;;;;;;3.67;2.33;;;;;5.30;95689.00;;;;8294207;28;20225;-71
2023/01/10 00:21:32;;;;;;;6.93;2.60;;;;;5.30;95703.00;;;;8294595;28;20186;-71
2023/01/10 00:25:35;;;;;;;3.03;2.67;;;;;5.30;95707.00;;;;8294443;28;20809;-71
2023/01/10 00:29:45;;;;;;;6.10;2.60;;;;;5.40;95707.00;;;;8293749;28;20209;-71
2023/01/10 00:33:49;;;;;;;5.80;3.00;;;;;5.40;95717.00;;;;8294334;28;20652;-71
2023/01/10 00:38:00;;;;;;;5.53;2.60;;;;;5.40;95726.00;;;;8293199;28;20267;-71
2023/01/10 00:46:27;;;;;;;3.43;2.60;;;;;5.50;95744.00;;;;8292614;28;20198;-71
2023/01/10 00:50:34;;;;;;;6.27;2.80;;;;;5.50;95750.00;;;;8294538;28;20204;-71
2023/01/10 00:54:44;;;;;;;3.87;3.00;;;;;5.50;95756.00;;;;8293937;28;20252;-71
2023/01/10 00:59:16;;;;;;;5.30;2.80;;;;;5.50;95771.00;;;;8293998;28;20583;-72
2023/01/10 01:03:22;;;;;;;3.07;2.37;;;;;5.50;95774.00;;;;8293654;28;20216;-71
2023/01/10 01:07:28;;;;;;;9.53;3.07;;;;;5.50;95786.00;;;;8293589;28;20208;-72
2023/01/10 01:11:37;;;;;;;6.10;2.70;;;;;5.50;95794.00;;;;8298119;28;20186;-71
2023/01/10 01:15:42;;;;;;;4.60;3.10;;;;;5.50;95799.00;;;;8299149;28;20225;-71
2023/01/10 01:19:52;;;;;;;5.87;2.70;;;;;5.60;95816.00;;;;8299126;28;20627;-71
2023/01/10 01:23:58;;;;;;;5.20;3.17;;;;;5.60;95829.00;;;;8299618;28;20273;-71
2023/01/10 01:28:07;;;;;;;3.77;3.00;;;;;5.60;95831.00;;;;8298867;28;20595;-71
2023/01/10 01:32:10;;;;;;;4.13;3.20;;;;;5.70;95844.00;;;;8299610;28;20194;-72
2023/01/10 01:36:14;;;;;;;5.13;3.10;;;;;5.70;95841.00;;;;8299215;28;20230;-71
2023/01/10 01:40:49;;;;;;;5.50;3.23;;;;;5.70;95833.00;;;;8299322;28;20208;-72
2023/01/10 01:45:29;;;;;;;6.43;3.30;;;;;5.70;95849.00;;;;8304076;28;20194;-71
2023/01/10 01:50:13;;;;;;;4.20;3.50;;;;;5.70;95864.00;;;;8303510;28;20555;-71
2023/01/10 01:54:18;;;;;;;3.83;3.20;;;;;5.80;95866.00;;;;8304101;28;20275;-71
2023/01/10 01:58:54;;;;;;;4.47;3.97;;;;;5.80;95869.00;;;;8302553;28;20777;-71
2023/01/10 02:03:02;;;;;;;5.00;3.70;;;;;5.80;95875.00;;;;8303162;28;20246;-71
2023/01/10 02:07:12;;;;;;;4.57;4.10;;;;;5.80;95880.00;;;;8301645;28;20292;-71
2023/01/10 02:11:15;;;;;;;4.30;3.63;;;;;5.80;95885.00;;;;8304322;28;20187;-72
2023/01/10 02:15:53;;;;;;;3.30;2.93;;;;;5.80;95890.00;;;;8302464;28;20229;-72
2023/01/10 02:20:00;;;;;;;6.67;3.27;;;;;5.80;95898.00;;;;8300746;28;20689;-71
2023/01/10 02:24:39;;;;;;;3.90;3.10;;;;;5.80;95906.00;;;;8302074;28;20244;-72
2023/01/10 02:29:17;;;;;;;3.13;2.87;;;;;5.80;95905.00;;;;8302258;28;20229;-72
2023/01/10 02:33:31;;;;;;;4.43;3.30;;;;;5.80;95909.00;;;;8283314;28;20571;-72
2023/01/10 02:37:45;;;;;;;3.30;3.00;;;;;5.80;95908.00;;;;8301879;28;20245;-72
2023/01/10 02:41:56;;;;;;;4.70;3.00;;;;;5.90;95916.00;;;;8301841;28;20628;-72
2023/01/10 02:46:03;;;;;;;5.90;3.03;;;;;5.90;95924.00;;;;8301253;28;20198;-72
2023/01/10 02:50:58;;;;;;;3.60;2.93;;;;;5.90;95927.00;;;;8301064;28;20543;-71
2023/01/10 02:55:03;;;;;;;4.63;3.07;;;;;5.90;95935.00;;;;8201121;29;20658;-72
2023/01/10 02:59:41;;;;;;;3.27;2.93;;;;;5.90;95937.00;;;;8255392;28;20238;-71
2023/01/10 03:03:59;;;;;;;2.77;2.63;;;;;5.80;95952.00;;;;8241557;23;20231;-75
2023/01/10 03:08:16;;;;;;;3.10;2.87;;;;;5.80;95959.00;;;;8221808;28;20206;-75
2023/01/10 03:12:27;;;;;;;2.93;2.63;;;;;5.80;95970.00;;;;8223479;28;20207;-72
2023/01/10 03:16:35;;;;;;;5.87;3.10;;;;;5.80;95961.00;;;;8222667;28;20226;-72
2023/01/10 03:20:42;;;;;;;6.13;2.90;;;;;5.80;95972.00;;;;8223529;28;20270;-73
2023/01/10 03:24:51;;;;;;;3.17;2.87;;;;;5.80;95988.00;;;;8222958;28;20206;-72
2023/01/10 03:29:00;;;;;;;3.07;2.77;;;;;5.80;95989.00;;;;8219597;28;20203;-75
2023/01/10 03:33:07;;;;;;;3.07;2.77;;;;;5.90;95998.00;;;;8217763;28;20262;-74
2023/01/10 03:37:14;;;;;;;3.30;3.00;;;;;5.90;95993.00;;;;8211198;28;20230;-78
2023/01/10 03:41:26;;;;;;;3.77;3.10;;;;;5.90;96001.00;;;;8216596;28;20195;-71
2023/01/10 03:45:41;;;;;;;3.60;3.30;;;;;5.90;96018.00;;;;8211613;28;20227;-73
2023/01/10 03:49:48;;;;;;;4.33;3.50;;;;;5.90;96024.00;;;;8217973;28;20302;-72
2023/01/10 03:53:51;;;;;;;4.27;3.40;;;;;5.90;96019.00;;;;8216314;28;20231;-77
2023/01/10 03:57:56;;;;;;;3.90;3.40;;;;;5.90;96040.00;;;;8215899;28;20212;-79
2023/01/10 04:01:59;;;;;;;4.40;3.20;;;;;6.00;96037.00;;;;8211823;28;20278;-75
2023/01/10 04:06:06;;;;;;;4.97;3.67;;;;;6.00;96045.00;;;;8215703;28;20207;-75
2023/01/10 04:10:11;;;;;;;6.87;3.63;;;;;6.00;96056.00;;;;8211002;28;20259;-74
2023/01/10 04:14:25;;;;;;;5.37;3.53;;;;;5.90;96062.00;;;;8205681;28;20232;-74
2023/01/10 04:18:28;;;;;;;5.63;3.57;;;;;5.80;96076.00;;;;8215202;28;20290;-75
2023/01/10 04:22:31;;;;;;;5.20;3.60;;;;;5.70;96076.00;;;;8211014;28;20204;-75
2023/01/10 04:26:34;;;;;;;4.60;3.70;;;;;5.60;96082.00;;;;8196626;28;20226;-72
2023/01/10 04:30:41;;;;;;;4.33;3.80;;;;;5.60;96089.00;;;;8206705;28;20207;-78
2023/01/10 04:34:44;;;;;;;6.33;3.90;;;;;5.70;96104.00;;;;8207829;28;20290;-79
2023/01/10 04:38:47;;;;;;;5.67;3.60;;;;;5.60;96106.00;;;;8212801;28;20203;-74
2023/01/10 04:42:50;;;;;;;4.77;3.60;;;;;5.60;96108.00;;;;8214241;28;20211;-75
2023/01/10 04:46:56;;;;;;;6.93;3.40;;;;;5.60;96114.00;;;;8215116;28;20574;-75
2023/01/10 04:50:59;;;;;;;5.97;3.73;;;;;5.50;96116.00;;;;8222398;28;20254;-75
2023/01/10 04:55:25;;;;;;;7.40;3.77;;;;;5.50;96136.00;;;;8212505;28;20719;-74
2023/01/10 04:59:31;;;;;;;7.23;3.60;;;;;5.50;96130.00;;;;8215911;28;20854;-75
2023/01/10 05:03:37;;;;;;;4.63;4.00;;;;;5.50;96140.00;;;;8218085;28;20293;-72
2023/01/10 05:07:46;;;;;;;4.60;3.80;;;;;5.60;96152.00;;;;8210961;28;20210;-77
2023/01/10 05:11:55;;;;;;;8.07;4.13;;;;;5.60;96160.00;;;;8213782;28;20204;-74
2023/01/10 05:16:04;;;;;;;8.03;4.53;;;;;5.60;96172.00;;;;8216643;28;20239;-72
2023/01/10 05:20:12;;;;;;;7.40;4.50;;;;;5.60;96178.00;;;;8214797;28;20694;-75
2023/01/10 05:24:15;;;;;;;6.97;4.40;;;;;5.60;96191.00;;;;8216042;28;20192;-73
2023/01/10 05:28:18;;;;;;;5.40;4.17;;;;;5.60;96195.00;;;;8207794;28;20229;-73
2023/01/10 05:32:22;;;;;;;10.63;5.70;;;;;5.50;96194.00;;;;8209392;28;20226;-73
2023/01/10 05:36:26;;;;;;;7.50;4.70;;;;;5.50;96216.00;;;;8213079;28;20216;-76
2023/01/10 05:40:38;;;;;;;7.20;5.00;;;;;5.50;96219.00;;;;8208597;28;20204;-72
2023/01/10 05:44:41;;;;;;;7.03;4.43;;;;;5.50;96211.00;;;;8209315;28;20271;-77
2023/01/10 05:48:47;;;;;;;8.37;4.60;;;;;5.50;96217.00;;;;8210573;28;20608;-74
2023/01/10 05:52:51;;;;;;;8.23;4.90;;;;;5.50;96228.00;;;;8220173;28;20259;-74
2023/01/10 05:56:54;;;;;;;6.20;4.67;;;;;5.50;96235.00;;;;8216407;28;20263;-75
2023/01/10 06:00:58;;;;;;;7.77;4.83;;;;;5.50;96245.00;;;;8211045;28;20224;-78
2023/01/10 06:05:04;;;;;;;7.50;4.63;;;;;5.50;96253.00;;;;8221121;28;20664;-76
2023/01/10 06:09:09;;;;;;;7.13;5.10;;;;;5.40;96262.00;;;;8217453;28;20192;-72
2023/01/10 06:13:14;;;;;;;9.33;5.10;;;;;5.50;96266.00;;;;8221754;28;20206;-77
2023/01/10 06:17:17;;;;;;;6.87;5.27;;;;;5.50;96290.00;;;;8212889;28;20237;-74
2023/01/10 06:21:20;;;;;;;10.70;4.90;;;;;5.50;96302.00;;;;8215793;28;20203;-76
2023/01/10 06:25:26;;;;;;;10.77;5.33;;;;;5.50;96313.00;;;;8220440;28;20277;-75
2023/01/10 06:29:32;;;;;;;9.73;5.93;;;;;5.50;96311.00;;;;8220201;28;20265;-74
2023/01/10 06:33:35;;;;;;;9.97;5.97;;;;;5.50;96329.00;;;;8206801;28;20718;-74
2023/01/10 06:37:38;;;;;;;12.37;6.00;;;;;5.50;96337.00;;;;8211687;28;20328;-75
2023/01/10 06:41:43;;;;;;;11.00;6.10;;;;;5.40;96352.00;;;;8212420;28;20192;-72
2023/01/10 06:45:46;;;;;;;10.03;6.23;;;;;5.50;96357.00;;;;8212148;28;20208;-74
2023/01/10 06:49:50;;;;;;;12.20;6.13;;;;;5.50;96362.00;;;;8216983;28;20229;-73
2023/01/10 06:53:54;;;;;;;12.33;6.50;;;;;5.50;96375.00;;;;8213313;28;20238;-74
2023/01/10 06:58:03;;;;;;;11.73;6.33;;;;;5.50;96391.00;;;;8211127;28;20664;-75
2023/01/10 07:02:06;;;;;;;9.73;6.10;;;;;5.50;96389.00;;;;8207859;28;20215;-77
2023/01/10 07:06:10;;;;;;;10.47;4.97;;;;;5.50;96389.00;;;;8207487;28;20211;-73
2023/01/10 07:10:13;;;;;;;12.10;6.50;;;;;5.50;96406.00;;;;8210669;28;20790;-76
2023/01/10 07:14:20;;;;;;;13.07;6.47;;;;;5.50;96412.00;;;;8212692;28;20198;-76
2023/01/10 07:18:24;;;;;;;14.70;6.73;;;;;5.50;96433.00;;;;8210080;28;20655;-77
2023/01/10 07:22:33;;;;;;;18.60;6.67;;;;;5.50;96445.00;;;;8216315;28;20235;-75
2023/01/10 07:26:54;;;;;;;15.70;7.60;;;;;5.50;96447.00;;;;8204084;28;20199;-76
2023/01/10 07:31:02;;;;;;;14.97;6.60;;;;;5.50;96459.00;;;;8226818;28;20720;-72
2023/01/10 07:35:06;;;;;;;15.10;6.20;;;;;5.50;96472.00;;;;8209995;28;20538;-74
2023/01/10 07:39:09;;;;;;;16.10;7.07;;;;;5.50;96479.00;;;;8213202;28;20707;-74
2023/01/10 07:43:13;;;;;;;17.07;7.07;;;;;5.60;96492.00;;;;8216731;28;20788;-72
2023/01/10 07:47:18;;;;;;;17.80;7.30;;;;;5.60;96505.00;;;;8215322;28;20724;-74
2023/01/10 07:51:34;;;;;;;20.53;7.57;;;;;5.60;96502.00;;;;8210296;28;20195;-73
2023/01/10 07:55:44;;;;;;;16.17;7.47;;;;;5.60;96515.00;;;;8210043;28;20250;-74
2023/01/10 07:59:47;;;;;;;15.47;7.43;;;;;5.50;96516.00;;;;8215082;28;20204;-73
2023/01/10 08:03:56;;;;;;;18.70;6.47;;;;;5.50;96523.00;;;;8209562;28;20239;-76
2023/01/10 08:08:04;;;;;;;14.07;6.77;;;;;5.60;96518.00;;;;8214864;28;20199;-75
2023/01/10 08:12:07;;;;;;;12.83;6.23;;;;;5.60;96531.00;;;;8218414;28;20353;-76
2023/01/10 08:16:14;;;;;;;14.00;7.33;;;;;5.60;96544.00;;;;8215064;28;20299;-76
2023/01/10 08:20:21;;;;;;;12.07;7.53;;;;;5.70;96542.00;;;;8221422;28;20893;-73
2023/01/10 08:24:25;;;;;;;19.67;7.63;;;;;5.80;96558.00;;;;8230827;28;20716;-73
2023/01/10 08:28:29;;;;;;;17.70;6.40;;;;;5.70;96570.00;;;;8265255;28;20253;-72
2023/01/10 08:32:34;;;;;;;16.10;6.60;;;;;5.60;96566.00;;;;8266844;28;20202;-73
2023/01/10 08:36:40;;;;;;;18.30;7.10;;;;;5.60;96577.00;;;;8266158;28;20231;-72
2023/01/10 08:41:14;;;;;;;15.53;6.60;;;;;5.70;96590.00;;;;8266395;28;20248;-72
2023/01/10 08:45:17;;;;;;;17.33;6.70;;;;;5.80;96599.00;;;;8264955;28;20624;-72
2023/01/10 08:49:23;;;;;;;15.17;6.70;;;;;5.90;96596.00;;;;8266034;28;20199;-72
2023/01/10 08:53:30;;;;;;;15.30;6.53;;;;;5.90;96606.00;;;;8266430;28;20235;-72
2023/01/10 08:58:04;;;;;;;18.17;6.43;;;;;5.80;96617.00;;;;8266823;28;20669;-72
2023/01/10 09:02:11;;;;;;;16.83;6.33;;;;;5.90;96622.00;;;;8265916;28;20227;-72
2023/01/10 09:06:20;;;;;;;11.80;6.40;;;;;5.80;96623.00;;;;8266346;28;20183;-72
2023/01/10 09:10:25;;;;;;;19.77;5.83;;;;;5.90;96621.00;;;;8265426;28;20195;-71
2023/01/10 09:14:29;;;;;;;15.07;6.03;;;;;5.90;96641.00;;;;8266808;28;20201;-72
2023/01/10 09:18:32;;;;;;;13.00;5.13;;;;;5.90;96648.00;;;;8264638;28;20222;-74
2023/01/10 09:23:10;;;;;;;12.53;4.07;;;;;5.80;96657.00;;;;8265985;28;20194;-74
2023/01/10 09:27:16;;;;;;;13.67;4.80;;;;;5.70;96670.00;;;;8266140;28;20203;-72
2023/01/10 09:31:21;;;;;;;18.50;5.13;;;;;5.70;96667.00;;;;8269395;28;20191;-72
2023/01/10 09:35:25;;;;;;;15.50;5.80;;;;;5.80;96666.00;;;;8271424;28;20206;-71
2023/01/10 09:39:59;;;;;;;16.73;5.73;;;;;5.90;96679.00;;;;8270997;28;20572;-70
2023/01/10 09:44:09;;;;;;;14.90;4.80;;;;;6.00;96696.00;;;;8270638;28;20202;-70
2023/01/10 09:48:20;;;;;;;23.30;4.33;;;;;6.00;96705.00;;;;8270866;28;20206;-70
2023/01/10 09:52:27;;;;;;;13.10;4.03;;;;;6.00;96699.00;;;;8270676;28;20198;-71
2023/01/10 09:56:33;;;;;;;15.23;4.03;;;;;5.90;96711.00;;;;8271600;28;20222;-71
2023/01/10 10:00:49;;;;;;;10.97;3.73;;;;;5.70;96721.00;;;;8270208;28;20186;-71
2023/01/10 10:05:09;;;;;;;10.57;4.20;;;;;5.70;96719.00;;;;8270353;28;20655;-71
2023/01/10 10:09:16;;;;;;;15.77;4.70;;;;;5.70;96710.00;;;;8270506;28;20210;-71
2023/01/10 10:13:24;;;;;;;16.77;4.70;;;;;5.70;96718.00;;;;8272731;28;20191;-70
2023/01/10 10:17:40;;;;;;;14.40;4.70;;;;;5.80;96711.00;;;;8270028;28;20321;-71
2023/01/10 10:21:56;;;;;;;9.47;4.50;;;;;5.80;96717.00;;;;8269874;28;20191;-71
2023/01/10 10:26:24;;;;;;;15.03;4.60;;;;;5.80;96708.00;;;;8270631;28;20540;-70
2023/01/10 10:30:41;;;;;;;13.20;5.10;;;;;5.80;96699.00;;;;8269742;28;20195;-71
2023/01/10 10:34:53;;;;;;;13.10;5.30;;;;;5.90;96706.00;;;;8269650;28;20662;-71
2023/01/10 10:39:02;;;;;;;11.13;5.03;;;;;5.90;96726.00;;;;8269431;28;20293;-71
2023/01/10 10:43:20;;;;;;;19.77;5.20;;;;;5.80;96713.00;;;;8268518;28;20195;-71
2023/01/10 10:47:30;;;;;;;17.63;4.70;;;;;5.90;96704.00;;;;8268936;28;20199;-71
2023/01/10 10:51:44;;;;;;;15.80;5.10;;;;;6.00;96705.00;;;;8267402;28;20229;-71
2023/01/10 10:56:11;;;;;;;13.00;5.03;;;;;6.10;96703.00;;;;8264485;28;20195;-71
2023/01/10 11:00:18;;;;;;;15.10;4.50;;;;;6.20;96702.00;;;;8264479;28;20580;-71
2023/01/10 11:04:23;;;;;;;11.67;4.93;;;;;6.20;96710.00;;;;8260895;28;20258;-71
2023/01/10 11:08:34;;;;;;;11.33;5.20;;;;;6.30;96710.00;;;;8264602;28;20552;-71
2023/01/10 11:12:46;;;;;;;18.70;5.13;;;;;6.40;96731.00;;;;8263710;28;20285;-70
2023/01/10 11:16:49;;;;;;;16.07;4.73;;;;;6.40;96732.00;;;;8262875;28;20215;-70
2023/01/10 11:21:00;;;;;;;15.37;5.37;;;;;6.30;96727.00;;;;8262675;28;20611;-70
2023/01/10 11:25:37;;;;;;;18.00;5.63;;;;;6.20;96746.00;;;;8264564;28;20221;-71
2023/01/10 11:29:44;;;;;;;12.83;5.87;;;;;6.20;96746.00;;;;8263944;28;20497;-71
2023/01/10 11:33:48;;;;;;;20.27;5.47;;;;;6.00;96744.00;;;;8263347;28;20195;-70
2023/01/10 11:38:23;;;;;;;19.70;5.97;;;;;6.00;96744.00;;;;8262589;28;20268;-70
2023/01/10 11:42:32;;;;;;;18.63;7.50;;;;;6.00;96735.00;;;;8263188;28;20199;-71
2023/01/10 11:46:43;;;;;;;25.43;8.50;;;;;6.10;96753.00;;;;8263137;28;20625;-71
2023/01/10 11:50:53;;;;;;;15.83;5.73;;;;;6.10;96740.00;;;;8263243;28;20699;-71
2023/01/10 11:55:02;;;;;;;12.13;5.83;;;;;6.20;96740.00;;;;8263783;28;20190;-71
2023/01/10 11:59:15;;;;;;;21.83;10.17;;;;;6.30;96748.00;;;;8263007;28;20234;-71
2023/01/10 12:03:28;;;;;;;16.87;4.70;;;;;6.40;96759.00;;;;8262044;28;20568;-71
2023/01/10 12:07:56;;;;;;;16.53;5.97;;;;;6.50;96746.00;;;;8261261;28;20679;-71
2023/01/10 12:12:02;;;;;;;17.23;4.83;;;;;6.60;96750.00;;;;8262382;28;20199;-71
2023/01/10 12:16:40;;;;;;;18.27;4.97;;;;;6.70;96750.00;;;;8261423;28;20199;-71
2023/01/10 12:20:49;;;;;;;15.07;5.00;;;;;6.70;96744.00;;;;8262884;28;20198;-71
2023/01/10 12:25:21;;;;;;;16.00;4.33;;;;;6.80;96743.00;;;;8260322;28;20583;-70
2023/01/10 12:29:28;;;;;;;15.13;4.07;;;;;6.90;96753.00;;;;8261711;28;20198;-71
2023/01/10 12:33:39;;;;;;;8.67;3.67;;;;;7.00;96757.00;;;;8261153;28;20190;-71
2023/01/10 12:37:47;;;;;;;15.80;3.67;;;;;7.00;96753.00;;;;8260280;28;20280;-71
2023/01/10 12:47:22;;;;;;;11.70;2.97;;;;;7.10;96768.00;;;;8260368;28;20217;-71
2023/01/10 12:51:29;;;;;;;10.70;2.90;;;;;7.20;96773.00;;;;8262774;28;20206;-71
2023/01/10 12:55:36;;;;;;;8.97;2.20;;;;;7.20;96764.00;;;;8261844;28;20198;-71
2023/01/10 13:00:16;;;;;;;12.30;2.80;;;;;7.10;96775.00;;;;8262141;28;20547;-71
2023/01/10 13:04:26;;;;;;;9.83;2.90;;;;;7.10;96772.00;;;;8262181;28;20257;-72
2023/01/10 13:08:33;;;;;;;12.63;2.27;;;;;7.00;96764.00;;;;8267078;28;20257;-71
2023/01/10 13:13:06;;;;;;;6.93;2.40;;;;;6.90;96785.00;;;;8268537;28;20201;-72
2023/01/10 13:17:26;;;;;;;6.93;2.23;;;;;6.80;96779.00;;;;8266680;28;20576;-71
2023/01/10 13:21:30;;;;;;;4.83;1.90;;;;;6.80;96788.00;;;;8267566;28;20248;-71
2023/01/10 13:25:38;;;;;;;9.63;1.90;;;;;6.80;96790.00;;;;8265116;28;20587;-71
2023/01/10 13:29:47;;;;;;;7.10;2.20;;;;;6.70;96782.00;;;;8271639;28;20493;-71
2023/01/10 13:34:18;;;;;;;6.43;2.20;;;;;6.70;96788.00;;;;8271981;28;20687;-71
2023/01/10 13:38:30;;;;;;;5.37;1.80;;;;;6.70;96796.00;;;;8271920;28;20262;-70
2023/01/10 13:47:09;;;;;;;9.57;2.80;;;;;6.60;96806.00;;;;8271739;28;20198;-71
2023/01/10 13:51:22;;;;;;;10.43;2.50;;;;;6.60;96788.00;;;;8271941;28;20246;-71
2023/01/10 13:55:34;;;;;;;4.07;1.90;;;;;6.60;96794.00;;;;8270136;28;20592;-71
2023/01/10 14:04:41;;;;;;;7.37;2.03;;;;;6.60;96789.00;;;;8271960;28;20219;-71
2023/01/10 14:08:51;;;;;;;7.37;1.93;;;;;6.60;96801.00;;;;8271059;28;20601;-71
2023/01/10 14:13:07;;;;;;;6.47;1.90;;;;;6.70;96796.00;;;;8270951;28;20202;-71
2023/01/10 14:17:32;;;;;;;5.73;1.60;;;;;6.70;96801.00;;;;8270240;28;20202;-71
2023/01/10 14:21:41;;;;;;;6.27;2.00;;;;;6.70;96807.00;;;;8270336;28;20207;-71
2023/01/10 14:25:55;;;;;;;6.53;1.93;;;;;6.60;96800.00;;;;8270249;28;20575;-70
2023/01/10 14:30:00;;;;;;;8.60;2.13;;;;;6.50;96811.00;;;;8270605;28;20241;-71
2023/01/10 14:34:10;;;;;;;8.63;1.90;;;;;6.40;96812.00;;;;8269453;28;20198;-71
2023/01/10 14:38:23;;;;;;;6.80;2.03;;;;;6.40;96819.00;;;;8271260;28;20281;-71
2023/01/10 14:42:27;;;;;;;10.67;2.00;;;;;6.30;96810.00;;;;8269486;28;20210;-71
2023/01/10 14:47:03;;;;;;;9.20;1.80;;;;;6.20;96807.00;;;;8269816;28;20195;-71
2023/01/10 14:51:20;;;;;;;5.67;1.97;;;;;6.20;96811.00;;;;8269721;28;20671;-71
2023/01/10 14:55:24;;;;;;;10.33;2.50;;;;;6.00;96812.00;;;;8270066;28;20529;-71
2023/01/10 14:59:29;;;;;;;13.37;2.27;;;;;5.90;96818.00;;;;8268610;28;20227;-71
2023/01/10 15:03:37;;;;;;;10.73;2.40;;;;;5.80;96819.00;;;;8270311;28;20226;-71
2023/01/10 15:07:41;;;;;;;4.73;2.20;;;;;5.70;96809.00;;;;8268803;28;20249;-71
2023/01/10 15:11:50;;;;;;;12.97;5.23;;;;;5.60;96806.00;;;;8269460;28;20199;-71
2023/01/10 15:15:54;;;;;;;8.00;3.07;;;;;5.50;96799.00;;;;8268920;28;20579;-71
2023/01/10 15:20:00;;;;;;;16.60;7.80;;;;;5.30;96815.00;;;;8269015;28;20556;-71
2023/01/10 15:24:26;;;;;;;10.20;3.30;;;;;5.30;96810.00;;;;8269035;28;20197;-71
2023/01/10 15:28:30;;;;;;;7.70;4.00;;;;;5.30;96804.00;;;;8268098;28;20238;-71
2023/01/10 15:32:37;;;;;;;8.63;2.70;;;;;5.30;96802.00;;;;8268368;28;20203;-71
2023/01/10 15:36:46;;;;;;;6.23;2.60;;;;;5.30;96798.00;;;;8264399;28;20216;-71
2023/01/10 15:40:57;;;;;;;82.20;38.50;;;;;5.30;96796.00;;;;8262463;28;20223;-71
2023/01/10 15:45:18;;;;;;;39.10;19.60;;;;;5.30;96786.00;;;;8267099;28;20265;-71
2023/01/10 15:49:40;;;;;;;90.97;45.63;;;;;5.20;96785.00;;;;8266818;28;20517;-71
2023/01/10 15:54:28;;;;;;;9.60;6.10;;;;;5.20;96806.00;;;;8266470;28;20197;-71
2023/01/10 15:58:38;;;;;;;129.47;54.87;;;;;5.10;96809.00;;;;8266798;28;20687;-71
2023/01/10 16:07:43;;;;;;;23.57;17.27;;;;;4.90;96810.00;;;;8267066;28;20195;-72
2023/01/10 16:16:18;;;;;;;418.60;266.63;;;;;4.90;96814.00;;;;8265973;28;20249;-72
2023/01/10 16:20:50;;;;;;;24.17;12.13;;;;;4.80;96820.00;;;;8267148;28;20272;-72
2023/01/10 16:24:53;;;;;;;12.23;8.07;;;;;4.80;96811.00;;;;8266330;28;20195;-72
2023/01/10 16:28:59;;;;;;;14.57;8.27;;;;;4.80;96805.00;;;;8266759;28;20206;-72
2023/01/10 16:33:11;;;;;;;11.93;5.00;;;;;4.80;96810.00;;;;8266501;28;20686;-72
2023/01/10 16:37:16;;;;;;;4.73;2.77;;;;;4.80;96809.00;;;;8265189;28;20230;-72
2023/01/10 16:45:41;;;;;;;4.53;2.10;;;;;4.80;96803.00;;;;8266513;28;20199;-72
2023/01/10 16:50:19;;;;;;;6.13;2.93;;;;;4.90;96796.00;;;;8266694;28;20199;-72
2023/01/10 16:54:24;;;;;;;11.40;4.00;;;;;4.90;96792.00;;;;8267004;28;20202;-72
2023/01/10 16:58:28;;;;;;;8.43;3.60;;;;;5.00;96793.00;;;;8266597;28;20195;-72
2023/01/10 17:07:32;;;;;;;8.17;2.70;;;;;5.00;96779.00;;;;8266624;28;20199;-72
2023/01/10 17:11:43;;;;;;;10.60;3.10;;;;;5.10;96781.00;;;;8259621;28;20206;-72
2023/01/10 17:15:46;;;;;;;12.73;4.07;;;;;5.10;96772.00;;;;8260870;28;20265;-70
2023/01/10 17:19:53;;;;;;;7.90;2.90;;;;;5.10;96774.00;;;;8261783;28;20659;-70
2023/01/10 17:24:00;;;;;;;8.23;3.17;;;;;5.10;96777.00;;;;8261103;28;20198;-70
2023/01/10 17:28:04;;;;;;;6.10;3.10;;;;;5.00;96773.00;;;;8261479;28;20188;-70
2023/01/10 17:32:40;;;;;;;6.83;3.13;;;;;4.90;96769.00;;;;8261199;28;20191;-71
2023/01/10 17:37:18;;;;;;;7.40;2.70;;;;;4.70;96767.00;;;;8260551;28;20236;-71
2023/01/10 17:41:26;;;;;;;10.67;2.97;;;;;4.60;96764.00;;;;8260424;28;20227;-71
2023/01/10 17:45:31;;;;;;;8.77;2.20;;;;;4.30;96766.00;;;;8261113;28;20206;-71
2023/01/10 17:50:06;;;;;;;8.47;2.50;;;;;4.10;96770.00;;;;8260630;28;20191;-71
2023/01/10 17:54:09;;;;;;;4.53;2.20;;;;;3.80;96754.00;;;;8266210;28;20199;-71
2023/01/10 17:58:50;;;;;;;10.90;2.80;;;;;3.60;96752.00;;;;8265858;28;20277;-70
2023/01/10 18:02:56;;;;;;;7.23;2.77;;;;;3.40;96745.00;;;;8264898;28;20226;-71
2023/01/10 18:07:04;;;;;;;3.57;2.30;;;;;3.30;96746.00;;;;8264339;28;20202;-71
2023/01/10 18:11:09;;;;;;;9.60;2.50;;;;;3.30;96750.00;;;;8266688;28;20572;-70
2023/01/10 18:15:13;;;;;;;5.73;2.10;;;;;3.40;96756.00;;;;8264233;28;20216;-71
2023/01/10 18:19:21;;;;;;;4.60;2.60;;;;;3.40;96749.00;;;;8266238;28;20233;-71
2023/01/10 18:23:29;;;;;;;8.93;2.70;;;;;3.30;96748.00;;;;8266066;28;20830;-71
2023/01/10 18:27:34;;;;;;;7.17;2.63;;;;;3.30;96747.00;;;;8265772;28;20206;-71
2023/01/10 18:31:40;;;;;;;9.87;4.13;;;;;3.20;96757.00;;;;8265224;28;20185;-71
2023/01/10 18:36:18;;;;;;;9.80;3.07;;;;;3.10;96757.00;;;;8263339;28;20194;-71
2023/01/10 18:40:21;;;;;;;9.30;3.47;;;;;3.00;96755.00;;;;8265543;28;20238;-71
2023/01/10 18:44:28;;;;;;;8.07;2.67;;;;;2.90;96751.00;;;;8259221;28;20226;-71
2023/01/10 18:48:33;;;;;;;9.13;3.10;;;;;2.80;96750.00;;;;8265604;28;20201;-70
2023/01/10 18:53:07;;;;;;;10.07;3.53;;;;;2.70;96757.00;;;;8264675;28;20599;-70
2023/01/10 18:57:10;;;;;;;9.87;2.73;;;;;2.60;96747.00;;;;8265436;28;20200;-71
2023/01/10 19:01:15;;;;;;;11.80;4.33;;;;;2.50;96732.00;;;;8264394;28;20246;-70
2023/01/10 19:05:22;;;;;;;14.10;5.00;;;;;2.40;96731.00;;;;8263461;28;20233;-70
2023/01/10 19:09:28;;;;;;;15.17;4.50;;;;;2.30;96732.00;;;;8264425;28;20631;-70
2023/01/10 19:13:34;;;;;;;16.13;4.30;;;;;2.20;96726.00;;;;8264132;28;20208;-70
2023/01/10 19:17:37;;;;;;;14.83;4.23;;;;;2.10;96725.00;;;;8264563;28;20194;-70
2023/01/10 19:22:17;;;;;;;14.33;5.43;;;;;2.00;96721.00;;;;8262582;28;20236;-70
2023/01/10 19:26:51;;;;;;;18.97;6.73;;;;;1.90;96712.00;;;;8264270;28;20628;-70
2023/01/10 19:31:29;;;;;;;13.67;4.83;;;;;1.80;96716.00;;;;8263596;28;20256;-70
2023/01/10 19:36:04;;;;;;;16.50;6.40;;;;;1.70;96708.00;;;;8262248;28;20205;-69
2023/01/10 19:40:41;;;;;;;11.20;5.10;;;;;1.60;96716.00;;;;8263647;28;20232;-70
2023/01/10 19:44:46;;;;;;;10.80;4.60;;;;;1.70;96705.00;;;;8262922;28;20198;-70
2023/01/10 19:49:20;;;;;;;12.47;4.17;;;;;1.80;96712.00;;;;8266229;28;20200;-70
2023/01/10 19:53:57;;;;;;;11.13;4.23;;;;;1.80;96700.00;;;;8266995;28;20305;-71
2023/01/10 19:58:03;;;;;;;12.27;4.80;;;;;1.90;96701.00;;;;8267960;28;20205;-70
2023/01/10 20:02:06;;;;;;;10.73;4.30;;;;;1.90;96703.00;;;;8267596;28;20233;-71
2023/01/10 20:06:43;;;;;;;16.03;4.57;;;;;1.80;96705.00;;;;8267264;28;20197;-72
2023/01/10 20:10:47;;;;;;;13.33;4.03;;;;;1.80;96704.00;;;;8266875;28;20193;-69
2023/01/10 20:15:25;;;;;;;8.83;4.70;;;;;1.70;96713.00;;;;8267712;28;20289;-69
2023/01/10 20:19:28;;;;;;;10.97;5.53;;;;;1.60;96716.00;;;;8266976;28;20201;-71
2023/01/10 20:23:32;;;;;;;15.60;5.30;;;;;1.60;96719.00;;;;8267438;28;20206;-71
2023/01/10 20:27:35;;;;;;;9.63;5.30;;;;;1.60;96718.00;;;;8267349;28;20704;-71
2023/01/10 20:31:41;;;;;;;9.73;5.17;;;;;1.50;96715.00;;;;8266818;28;20289;-71
2023/01/10 20:35:57;;;;;;;11.97;4.40;;;;;1.40;96703.00;;;;8267845;28;20208;-71
2023/01/10 20:40:23;;;;;;;10.83;4.27;;;;;1.40;96710.00;;;;8266833;28;20245;-71
2023/01/10 20:44:57;;;;;;;13.43;4.43;;;;;1.30;96702.00;;;;8266999;28;20584;-71
2023/01/10 20:49:05;;;;;;;13.07;4.70;;;;;1.20;96692.00;;;;8266685;28;20242;-71
2023/01/10 20:53:44;;;;;;;8.17;4.23;;;;;1.10;96690.00;;;;8263310;28;20703;-70
2023/01/10 20:57:47;;;;;;;13.40;4.80;;;;;1.10;96682.00;;;;8266002;28;20244;-71
2023/01/10 21:07:23;;;;;;;7.67;4.00;;;;;1.10;96661.00;;;;8265886;28;20253;-70
2023/01/10 21:11:59;;;;;;;6.20;4.07;;;;;1.10;96650.00;;;;8266079;28;20197;-70
2023/01/10 21:16:33;;;;;;;11.00;4.13;;;;;1.10;96645.00;;;;8266448;28;20194;-70
2023/01/10 21:21:08;;;;;;;10.77;3.90;;;;;1.10;96641.00;;;;8263953;28;20220;-70
2023/01/10 21:25:13;;;;;;;7.53;4.10;;;;;1.10;96638.00;;;;8265906;28;20199;-70
2023/01/10 21:29:21;;;;;;;13.77;4.30;;;;;1.10;96643.00;;;;8272825;28;20229;-70
2023/01/10 21:33:55;;;;;;;9.80;4.10;;;;;1.20;96647.00;;;;8272818;28;20592;-70
2023/01/10 21:37:58;;;;;;;11.23;4.37;;;;;1.20;96654.00;;;;8271832;28;20204;-70
2023/01/10 21:47:03;;;;;;;16.70;4.83;;;;;1.50;96641.00;;;;8271533;28;20204;-70
2023/01/10 21:51:08;;;;;;;23.07;4.73;;;;;1.70;96645.00;;;;8272401;28;20662;-70
2023/01/10 21:55:15;;;;;;;12.50;4.40;;;;;1.80;96636.00;;;;8271347;28;20196;-70
2023/01/10 21:59:22;;;;;;;17.93;4.97;;;;;1.90;96634.00;;;;8270873;28;20279;-70